Weather at Coalisland Airstrip

Public forecast

Using degrees Celsius for public forecast. Weather courtesy of forecast.io.

Closest aviation weather report (METAR) to Coalisland Airstrip

Closest report is Belfast International Airport, 17.2 nm (31.8 km) ENE. Retrieved 2022/08/15 08:50 UTC (25 minutes ago):

EGAA 150850Z 34006KT 300V010 9999 BKN003 15/14 Q1004

Closest aviation forecast (TAF) to Coalisland Airstrip

Closest forecast is Belfast International Airport, 17.2 nm (31.8 km) ENE. Retrieved 2022/08/15 06:00 UTC (3 hours ago):

TAF EGAA 150455Z 1506/1606 34006KT 9999 FEW006 SCT025 TEMPO 1506/1521 7000 SHRA BKN008 PROB40 TEMPO 1506/1508 BKN004 PROB30 TEMPO 1506/1515 3000 +SHRA PROB30 TEMPO 1520/1524 BKN004 TEMPO 1521/1606 BKN009